Time;durP1;ratioP1;P1;durP2;ratioP2;P2;SDS_P1;SDS_P2;PMS_P1;PMS_P2;Temp;Humidity;BMP_temperature;BMP_pressure;BME280_temperature;BME280_humidity;BME280_pressure;Samples;Min_cycle;Max_cycle;Signal;HPM_P1;HPM_P2
2022/01/02 00:01:24;;;;;;;7.63;4.22;;;;;;;10.31;82.21;100231.69;4994511;28;20061;-56
2022/01/02 00:03:55;;;;;;;7.32;3.90;;;;;;;10.32;82.25;100220.50;4994618;28;20506;-56
2022/01/02 00:06:24;;;;;;;5.40;3.90;;;;;;;10.32;82.46;100219.59;4994178;28;20089;-55
2022/01/02 00:09:00;;;;;;;5.47;3.90;;;;;;;10.31;82.05;100228.22;4976565;28;20034;-57
2022/01/02 00:11:25;;;;;;;7.85;3.92;;;;;;;10.32;82.33;100238.63;4977493;28;20046;-55
2022/01/02 00:13:55;;;;;;;7.07;4.00;;;;;;;10.31;82.09;100238.59;4994374;28;20057;-55
2022/01/02 00:16:20;;;;;;;6.30;4.20;;;;;;;10.31;82.42;100236.88;4976974;28;20049;-55
2022/01/02 00:19:04;;;;;;;7.50;4.18;;;;;;;10.31;82.09;100233.41;4993152;28;20042;-55
2022/01/02 00:21:32;;;;;;;6.82;3.67;;;;;;;10.31;81.97;100229.13;4993133;28;20037;-56
2022/01/02 00:24:04;;;;;;;7.70;3.92;;;;;;;10.31;82.21;100231.69;4993971;28;20034;-56
2022/01/02 00:26:44;;;;;;;8.18;4.15;;;;;;;10.32;82.51;100224.78;4992547;28;20081;-55
2022/01/02 00:29:11;;;;;;;4.80;3.42;;;;;;;10.31;82.29;100213.56;4993180;28;20423;-56
2022/01/02 00:31:38;;;;;;;10.15;5.70;;;;;;;10.31;81.81;100228.22;4992891;28;20126;-55
2022/01/02 00:34:06;;;;;;;9.88;4.18;;;;;;;10.32;82.06;100224.78;4992949;28;20089;-56
2022/01/02 00:36:32;;;;;;;9.15;3.78;;;;;;;10.30;82.24;100222.19;4992911;28;20041;-56
2022/01/02 00:38:57;;;;;;;9.48;4.28;;;;;;;10.30;82.26;100209.22;4994272;28;20404;-56
2022/01/02 00:41:53;;;;;;;9.02;3.78;;;;;;;10.31;82.25;100207.50;5008811;28;20034;-56
2022/01/02 00:44:31;;;;;;;13.70;4.53;;;;;;;10.32;82.19;100201.47;4994110;28;20105;-55
2022/01/02 00:47:07;;;;;;;9.65;4.22;;;;;;;10.31;82.05;100198.03;4977108;28;20093;-56
2022/01/02 00:49:40;;;;;;;7.32;3.95;;;;;;;10.30;82.27;100206.63;4976999;28;20130;-56
2022/01/02 00:52:20;;;;;;;8.98;4.55;;;;;;;10.30;81.97;100198.88;4994024;28;20053;-56
2022/01/02 00:54:46;;;;;;;8.63;4.07;;;;;;;10.31;82.32;100198.03;4993579;28;20080;-56
2022/01/02 00:57:23;;;;;;;9.52;3.92;;;;;;;10.29;81.76;100194.53;4993702;28;20101;-56
2022/01/02 01:00:01;;;;;;;9.25;4.57;;;;;;;10.32;81.83;100189.41;4993236;28;20105;-56
2022/01/02 01:02:47;;;;;;;8.25;4.22;;;;;;;10.31;82.01;100181.59;4976172;28;20054;-55
2022/01/02 01:05:19;;;;;;;8.50;3.80;;;;;;;10.30;81.99;100185.03;4992644;28;20041;-55
2022/01/02 01:07:47;;;;;;;13.38;5.47;;;;;;;10.31;82.01;100184.19;4976709;28;20038;-56
2022/01/02 01:10:13;;;;;;;8.05;3.92;;;;;;;10.32;81.73;100180.75;4976254;28;20038;-55
2022/01/02 01:12:39;;;;;;;5.88;4.60;;;;;;;10.31;82.04;100172.13;4976886;28;20057;-55
2022/01/02 01:15:07;;;;;;;7.97;3.60;;;;;;;10.32;81.98;100160.91;4992833;28;20038;-55
2022/01/02 01:17:35;;;;;;;9.27;4.43;;;;;;;10.31;82.06;100174.72;4992505;28;20066;-55
2022/01/02 01:20:01;;;;;;;6.72;4.05;;;;;;;10.31;81.91;100169.53;4976266;28;20030;-55
2022/01/02 01:22:26;;;;;;;8.32;3.97;;;;;;;10.31;81.77;100166.06;4992555;28;20386;-55
2022/01/02 01:24:52;;;;;;;8.07;3.63;;;;;;;10.31;82.30;100159.16;4993511;28;20386;-56
2022/01/02 01:27:17;;;;;;;8.02;4.03;;;;;;;10.29;82.24;100163.44;4993308;28;20038;-56
2022/01/02 01:29:43;;;;;;;5.10;3.60;;;;;;;10.29;81.95;100157.38;4992942;28;20081;-56
2022/01/02 01:32:09;;;;;;;10.73;4.85;;;;;;;10.29;81.94;100154.78;4993926;28;20172;-56
2022/01/02 01:34:35;;;;;;;7.90;3.92;;;;;;;10.29;81.94;100155.66;4992209;28;20034;-56
2022/01/02 01:37:02;;;;;;;7.60;3.30;;;;;;;10.29;81.84;100158.25;4976259;28;20046;-56
2022/01/02 01:39:27;;;;;;;4.53;3.58;;;;;;;10.28;81.56;100160.81;4995220;28;20034;-56
2022/01/02 01:41:54;;;;;;;6.63;3.80;;;;;;;10.28;81.79;100158.22;4997211;28;20034;-55
2022/01/02 01:44:28;;;;;;;8.30;3.47;;;;;;;10.29;81.75;100155.66;4979784;28;20046;-56
2022/01/02 01:46:56;;;;;;;9.07;4.45;;;;;;;10.29;82.11;100154.78;4995887;28;20117;-55
2022/01/02 01:49:30;;;;;;;6.72;4.07;;;;;;;10.27;82.13;100148.72;4979545;28;20519;-56
2022/01/02 01:52:01;;;;;;;5.47;3.70;;;;;;;10.29;81.75;100147.00;4995536;28;20034;-56
2022/01/02 01:54:26;;;;;;;5.43;3.80;;;;;;;10.29;81.62;100141.81;4979475;28;20121;-56
2022/01/02 01:56:53;;;;;;;6.32;3.22;;;;;;;10.28;81.84;100143.56;4995784;28;20130;-56
2022/01/02 01:59:20;;;;;;;10.98;4.03;;;;;;;10.29;81.74;100134.94;4996909;28;20097;-56
2022/01/02 02:01:47;;;;;;;7.22;3.80;;;;;;;10.28;81.65;100140.09;4996757;28;20050;-56
2022/01/02 02:04:16;;;;;;;13.10;4.18;;;;;;;10.28;81.96;100133.19;4995473;28;20038;-56
2022/01/02 02:06:45;;;;;;;8.05;4.15;;;;;;;10.28;81.86;100129.72;4996683;28;20045;-56
2022/01/02 02:09:13;;;;;;;6.85;3.78;;;;;;;10.29;81.84;100128.88;4995594;28;20498;-55
2022/01/02 02:11:39;;;;;;;5.82;3.45;;;;;;;10.28;81.89;100114.19;4979040;28;20050;-56
2022/01/02 02:14:07;;;;;;;5.13;3.67;;;;;;;10.30;81.69;100115.97;4996487;28;20030;-55
2022/01/02 02:16:35;;;;;;;9.32;3.65;;;;;;;10.28;81.63;100115.06;4995329;28;20096;-56
2022/01/02 02:19:01;;;;;;;6.63;3.30;;;;;;;10.30;81.93;100122.84;4996536;28;20035;-56
2022/01/02 02:21:28;;;;;;;6.57;3.55;;;;;;;10.29;81.94;100126.28;4995215;28;20402;-56
2022/01/02 02:23:54;;;;;;;10.05;3.58;;;;;;;10.29;81.76;100116.81;4995172;28;20034;-56
2022/01/02 02:26:19;;;;;;;8.38;3.67;;;;;;;10.28;81.50;100116.78;4995856;28;20391;-56
2022/01/02 02:28:45;;;;;;;5.80;3.70;;;;;;;10.29;81.91;100121.09;4996174;28;20034;-55
2022/01/02 02:31:13;;;;;;;11.00;4.35;;;;;;;10.30;81.75;100115.97;4995807;28;20070;-56
2022/01/02 02:33:41;;;;;;;8.77;3.45;;;;;;;10.29;81.54;100102.97;4979359;28;20125;-56
2022/01/02 02:36:10;;;;;;;9.38;3.80;;;;;;;10.29;81.69;100111.63;4994943;28;20508;-56
2022/01/02 02:38:38;;;;;;;6.40;3.30;;;;;;;10.28;81.61;100109.88;4995918;28;20038;-55
2022/01/02 02:41:06;;;;;;;8.13;3.85;;;;;;;10.29;81.59;100113.34;4994697;28;20046;-55
2022/01/02 02:49:00;;;;;;;11.15;3.67;;;;;;;10.30;81.36;100117.66;4995906;28;20034;-55
2022/01/02 02:51:44;;;;;;;7.80;2.90;;;;;;;10.29;81.60;100115.94;4996013;28;20117;-56
2022/01/02 02:54:17;;;;;;;6.07;3.95;;;;;;;10.28;81.64;100104.72;4994568;28;20041;-56
2022/01/02 02:56:55;;;;;;;9.25;3.17;;;;;;;10.29;81.42;100097.78;4996104;28;20112;-56
2022/01/02 02:59:27;;;;;;;10.10;4.07;;;;;;;10.27;81.65;100092.59;4996175;28;20057;-56
2022/01/02 03:01:53;;;;;;;9.73;4.30;;;;;;;10.29;81.33;100090.03;4994331;28;20046;-55
2022/01/02 03:04:22;;;;;;;5.05;3.50;;;;;;;10.28;81.42;100081.38;4995759;28;20049;-55
2022/01/02 03:06:51;;;;;;;5.50;3.70;;;;;;;10.28;81.54;100071.03;4995344;28;20042;-56
2022/01/02 03:09:41;;;;;;;7.15;3.45;;;;;;;10.27;81.45;100065.84;4977979;28;20039;-56
2022/01/02 03:12:13;;;;;;;9.13;4.50;;;;;;;10.26;81.25;100059.75;4995843;28;20068;-56
2022/01/02 03:14:44;;;;;;;8.68;3.63;;;;;;;10.27;81.48;100064.09;4995579;28;20038;-55
2022/01/02 03:17:12;;;;;;;5.45;3.70;;;;;;;10.27;81.39;100060.66;4995724;28;20467;-55
2022/01/02 03:19:37;;;;;;;7.30;3.50;;;;;;;10.26;81.37;100057.19;4994018;28;20502;-55
2022/01/02 03:22:08;;;;;;;7.03;3.22;;;;;;;10.27;81.16;100058.94;4995284;28;20030;-55
2022/01/02 03:24:36;;;;;;;4.68;3.17;;;;;;;10.27;81.55;100052.88;4994514;28;20035;-56
2022/01/02 03:27:01;;;;;;;8.07;3.42;;;;;;;10.25;81.02;100057.16;4977910;28;20042;-55
2022/01/02 03:29:30;;;;;;;8.80;3.95;;;;;;;10.26;81.18;100056.31;4995236;28;20486;-56
2022/01/02 03:32:00;;;;;;;6.30;3.47;;;;;;;10.24;81.04;100061.44;4995019;28;20082;-55
2022/01/02 03:34:28;;;;;;;7.53;3.60;;;;;;;10.24;80.92;100058.88;4995275;28;20129;-55
2022/01/02 03:36:58;;;;;;;6.47;3.38;;;;;;;10.24;81.44;100055.41;4993880;28;20053;-56
2022/01/02 03:39:24;;;;;;;6.65;3.80;;;;;;;10.24;81.28;100056.28;4995098;28;20137;-56
2022/01/02 03:41:52;;;;;;;4.47;3.60;;;;;;;10.24;81.28;100045.91;4977768;28;20176;-56
2022/01/02 03:44:20;;;;;;;6.65;3.42;;;;;;;10.23;81.13;100044.16;4977123;28;20449;-56
2022/01/02 03:46:48;;;;;;;6.57;3.58;;;;;;;10.24;81.13;100040.72;5010370;28;20510;-55
2022/01/02 03:49:17;;;;;;;6.63;3.88;;;;;;;10.23;81.06;100044.16;4994735;28;20097;-56
2022/01/02 03:51:48;;;;;;;7.15;4.05;;;;;;;10.24;81.44;100030.38;4977277;28;20049;-56
2022/01/02 03:54:13;;;;;;;5.78;3.47;;;;;;;10.24;81.20;100037.28;4994866;28;20057;-56
2022/01/02 03:56:44;;;;;;;7.80;3.67;;;;;;;10.23;81.11;100038.97;4994953;28;20474;-56
2022/01/02 03:59:15;;;;;;;7.03;3.53;;;;;;;10.24;81.04;100039.88;4993384;28;20045;-56
2022/01/02 04:01:45;;;;;;;6.63;3.50;;;;;;;10.23;81.47;100026.03;4994315;28;20050;-56
2022/01/02 04:04:11;;;;;;;11.30;3.72;;;;;;;10.24;81.52;100032.97;4994410;28;20061;-56
2022/01/02 04:06:39;;;;;;;7.10;3.90;;;;;;;10.26;81.01;100038.19;4977550;28;20429;-55
2022/01/02 04:09:04;;;;;;;5.95;3.88;;;;;;;10.25;80.97;100023.50;4994513;28;20034;-55
2022/01/02 04:11:30;;;;;;;6.25;3.70;;;;;;;10.23;80.94;100020.84;4994155;28;20073;-56
2022/01/02 04:14:01;;;;;;;7.13;3.72;;;;;;;10.24;80.93;100007.06;4994366;28;20030;-56
2022/01/02 04:16:28;;;;;;;8.20;3.65;;;;;;;10.24;80.96;99999.28;4992933;28;20046;-56
2022/01/02 04:18:56;;;;;;;6.22;3.67;;;;;;;10.24;80.85;99988.94;4994261;28;20038;-55
2022/01/02 04:21:22;;;;;;;5.88;3.50;;;;;;;10.23;81.14;99994.94;4993127;28;20039;-56
2022/01/02 04:23:47;;;;;;;12.88;4.47;;;;;;;10.23;81.12;99981.16;5009204;28;20121;-56
2022/01/02 04:26:14;;;;;;;7.05;4.43;;;;;;;10.21;81.12;99973.34;4994641;28;20034;-56
2022/01/02 04:28:45;;;;;;;5.65;3.53;;;;;;;10.22;80.96;99985.44;4992952;28;20527;-55
2022/01/02 04:31:11;;;;;;;4.78;3.42;;;;;;;10.19;80.60;99985.41;4976961;28;20030;-56
2022/01/02 04:33:38;;;;;;;5.97;3.53;;;;;;;10.20;80.88;99980.25;4977065;28;20030;-55
2022/01/02 04:36:04;;;;;;;9.30;3.55;;;;;;;10.21;80.81;99982.00;4993040;28;20046;-55
2022/01/02 04:38:30;;;;;;;5.90;3.75;;;;;;;10.19;81.15;99981.09;4976798;28;20050;-56
2022/01/02 04:40:55;;;;;;;8.10;3.80;;;;;;;10.20;81.29;99971.59;4992595;28;20053;-56
2022/01/02 04:43:21;;;;;;;5.40;3.35;;;;;;;10.19;80.95;99964.69;4994052;28;20030;-56
2022/01/02 04:45:47;;;;;;;6.07;3.42;;;;;;;10.18;80.76;99961.22;4993928;28;20039;-55
2022/01/02 04:48:12;;;;;;;7.13;3.55;;;;;;;10.20;80.89;99948.28;4993917;28;20030;-56
2022/01/02 04:50:37;;;;;;;7.50;3.17;;;;;;;10.18;80.68;99950.00;4992899;28;20038;-56
2022/01/02 04:53:03;;;;;;;4.00;3.22;;;;;;;10.16;80.86;99947.38;4992428;28;20517;-56
2022/01/02 04:55:29;;;;;;;12.02;4.13;;;;;;;10.18;81.10;99940.50;4992551;28;20042;-56
2022/01/02 04:57:57;;;;;;;9.00;4.20;;;;;;;10.17;80.73;99937.91;4993012;28;20034;-56
2022/01/02 05:00:26;;;;;;;10.38;3.38;;;;;;;10.17;80.62;99935.31;4993949;28;20039;-56
2022/01/02 05:02:52;;;;;;;10.57;3.35;;;;;;;10.16;80.98;99936.16;4993806;28;20097;-56
2022/01/02 05:05:18;;;;;;;8.15;3.40;;;;;;;10.16;80.56;99928.38;4993865;28;20037;-55
2022/01/02 05:07:47;;;;;;;5.70;3.20;;;;;;;10.16;80.91;99928.38;4976322;28;20049;-56
2022/01/02 05:10:13;;;;;;;8.23;3.40;;;;;;;10.15;81.00;99930.09;4992183;28;20041;-56
2022/01/02 05:12:38;;;;;;;5.90;3.65;;;;;;;10.15;80.76;99932.66;4994270;28;20034;-56
2022/01/02 05:15:05;;;;;;;6.07;4.05;;;;;;;10.13;80.91;99912.78;4998228;28;20041;-56
2022/01/02 05:17:33;;;;;;;6.65;3.67;;;;;;;10.13;80.87;99911.06;4997686;28;20038;-55
2022/01/02 05:20:01;;;;;;;7.10;4.38;;;;;;;10.13;80.85;99898.09;4980204;28;20482;-55
2022/01/02 05:22:27;;;;;;;5.05;3.45;;;;;;;10.13;80.76;99889.47;4997518;28;20057;-56
2022/01/02 05:24:53;;;;;;;5.53;3.47;;;;;;;10.12;80.44;99877.38;4995997;28;20482;-56
2022/01/02 05:27:21;;;;;;;6.93;4.18;;;;;;;10.11;80.46;99892.06;4997628;28;20468;-56
2022/01/02 05:29:47;;;;;;;6.97;3.50;;;;;;;10.12;80.83;99892.91;4996409;28;20038;-55
2022/01/02 05:32:17;;;;;;;6.57;3.85;;;;;;;10.11;80.81;99899.81;4996008;28;20034;-56
2022/01/02 05:34:43;;;;;;;8.63;3.33;;;;;;;10.11;80.71;99904.13;4979893;28;20046;-56
2022/01/02 05:37:08;;;;;;;5.55;3.42;;;;;;;10.10;80.30;99892.91;4996808;28;20452;-56
2022/01/02 05:39:34;;;;;;;7.05;4.53;;;;;;;10.10;80.47;99897.19;4997740;28;20040;-56
2022/01/02 05:42:06;;;;;;;5.40;3.40;;;;;;;10.11;80.51;99891.16;4996542;28;20092;-55
2022/01/02 05:44:31;;;;;;;5.88;4.00;;;;;;;10.10;80.33;99890.31;4995965;28;20038;-55
2022/01/02 05:47:02;;;;;;;5.72;3.47;;;;;;;10.10;80.42;99882.53;4995702;28;20564;-55
2022/01/02 05:49:31;;;;;;;7.25;4.10;;;;;;;10.09;80.42;99869.56;4995901;28;20064;-56
2022/01/02 05:51:56;;;;;;;7.53;3.85;;;;;;;10.08;80.53;99865.22;4996994;28;20034;-55
2022/01/02 05:54:22;;;;;;;4.88;3.50;;;;;;;10.08;80.42;99849.69;4997039;28;20037;-55
2022/01/02 05:56:47;;;;;;;4.50;3.33;;;;;;;10.05;80.45;99841.03;4995966;28;20034;-56
2022/01/02 05:59:18;;;;;;;8.70;3.83;;;;;;;10.08;80.41;99842.81;4996043;28;20038;-56
2022/01/02 06:01:44;;;;;;;5.65;3.40;;;;;;;10.09;80.67;99839.38;4996722;28;20049;-56
2022/01/02 06:04:09;;;;;;;6.97;3.75;;;;;;;10.07;80.24;99833.28;4996339;28;20030;-55
2022/01/02 06:06:35;;;;;;;5.22;3.58;;;;;;;10.08;80.16;99831.56;4995121;28;20053;-56
2022/01/02 06:09:00;;;;;;;4.13;3.15;;;;;;;10.06;80.35;99819.47;4996680;28;20041;-55
2022/01/02 06:11:26;;;;;;;6.50;4.18;;;;;;;10.08;80.06;99818.63;4996811;28;20053;-56
2022/01/02 06:13:52;;;;;;;5.43;3.28;;;;;;;10.05;79.99;99815.13;4996417;28;20181;-55
2022/01/02 06:16:17;;;;;;;4.22;3.58;;;;;;;10.05;80.18;99815.13;4996509;28;20441;-55
2022/01/02 06:18:42;;;;;;;5.22;3.75;;;;;;;10.05;80.12;99830.66;4995092;28;20512;-56
2022/01/02 06:21:08;;;;;;;7.80;3.92;;;;;;;10.08;79.96;99822.09;4995976;28;20030;-56
2022/01/02 06:23:34;;;;;;;4.88;3.67;;;;;;;10.04;80.21;99805.63;4996535;28;20093;-56
2022/01/02 06:25:59;;;;;;;4.88;3.22;;;;;;;10.05;79.96;99807.34;4995245;28;20094;-56
2022/01/02 06:28:27;;;;;;;6.32;3.58;;;;;;;10.05;79.77;99788.38;4995977;28;20490;-56
2022/01/02 06:30:52;;;;;;;5.15;3.53;;;;;;;10.04;80.17;99786.63;4996183;28;20117;-55
2022/01/02 06:33:21;;;;;;;3.90;3.50;;;;;;;10.05;79.99;99778.03;4995019;28;20133;-55
2022/01/02 06:35:46;;;;;;;5.25;3.55;;;;;;;10.05;80.04;99775.44;4995686;28;20065;-56
2022/01/02 06:38:19;;;;;;;8.52;3.80;;;;;;;10.05;79.80;99791.81;4996638;28;20069;-56
2022/01/02 06:40:44;;;;;;;4.70;3.70;;;;;;;10.05;79.72;99781.47;4995318;28;20034;-55
2022/01/02 06:43:10;;;;;;;3.97;2.80;;;;;;;10.06;79.92;99777.19;4995984;28;20116;-56
2022/01/02 06:45:36;;;;;;;5.70;3.10;;;;;;;10.06;79.86;99769.41;4996022;28;20433;-55
2022/01/02 06:48:06;;;;;;;4.20;3.20;;;;;;;10.04;79.76;99766.78;4994987;28;20081;-55
2022/01/02 06:50:32;;;;;;;4.13;3.22;;;;;;;10.06;79.66;99746.97;4994231;28;20090;-56
2022/01/02 06:52:58;;;;;;;4.00;3.38;;;;;;;10.06;79.58;99738.34;4979306;28;20046;-56
2022/01/02 06:55:26;;;;;;;5.90;2.92;;;;;;;10.04;79.81;99708.97;4978444;28;20096;-56
2022/01/02 06:57:52;;;;;;;7.95;3.30;;;;;;;10.08;79.80;99686.56;4978502;28;20045;-55
2022/01/02 07:00:20;;;;;;;4.82;3.40;;;;;;;10.09;79.77;99667.59;4995318;28;20038;-55
2022/01/02 07:02:48;;;;;;;4.30;3.15;;;;;;;10.08;79.96;99666.72;4977708;28;20050;-55
2022/01/02 07:05:17;;;;;;;6.53;2.92;;;;;;;10.09;79.75;99658.13;4995351;28;20041;-56
2022/01/02 07:07:45;;;;;;;5.78;3.42;;;;;;;10.08;79.58;99646.00;4995860;28;20181;-55
2022/01/02 07:10:15;;;;;;;5.22;3.53;;;;;;;10.09;79.46;99658.13;4978484;28;20113;-55
2022/01/02 07:12:46;;;;;;;4.15;3.20;;;;;;;10.09;79.51;99649.47;4995350;28;20045;-55
2022/01/02 07:15:12;;;;;;;3.72;2.50;;;;;;;10.09;79.58;99646.88;4994408;28;20541;-56
2022/01/02 07:17:42;;;;;;;4.35;3.10;;;;;;;10.08;79.70;99635.66;4995415;28;20478;-56
2022/01/02 07:20:11;;;;;;;3.92;2.50;;;;;;;10.09;79.54;99633.91;4977913;28;20038;-55
2022/01/02 07:22:36;;;;;;;5.45;3.15;;;;;;;10.09;79.59;99647.75;4977904;28;20050;-55
2022/01/02 07:25:05;;;;;;;4.75;3.53;;;;;;;10.06;79.25;99640.81;4995159;28;20478;-55
2022/01/02 07:27:30;;;;;;;5.35;3.50;;;;;;;10.06;79.55;99617.50;4977807;28;20136;-55
2022/01/02 07:29:56;;;;;;;4.18;3.47;;;;;;;10.06;79.46;99612.31;4994979;28;20073;-55
2022/01/02 07:32:24;;;;;;;4.05;2.90;;;;;;;10.08;79.17;99625.31;4994902;28;20047;-56
2022/01/02 07:35:04;;;;;;;5.60;3.40;;;;;;;10.06;79.11;99624.41;4995020;28;20097;-56
2022/01/02 07:37:29;;;;;;;5.82;3.45;;;;;;;10.06;79.22;99625.25;4993269;28;20089;-55
2022/01/02 07:39:57;;;;;;;5.70;3.00;;;;;;;10.08;79.50;99640.84;4993721;28;20038;-55
2022/01/02 07:42:22;;;;;;;6.32;4.05;;;;;;;10.09;79.19;99631.34;4993718;28;20046;-56
2022/01/02 07:44:50;;;;;;;4.40;3.03;;;;;;;10.09;79.21;99634.81;4995093;28;20030;-56
2022/01/02 07:47:16;;;;;;;7.28;3.83;;;;;;;10.09;79.44;99619.28;4994802;28;20129;-56
2022/01/02 07:49:46;;;;;;;4.45;3.17;;;;;;;10.10;79.23;99638.25;4995074;28;20042;-55
2022/01/02 07:52:14;;;;;;;6.10;3.13;;;;;;;10.10;79.34;99658.97;4994794;28;20126;-56
2022/01/02 07:54:39;;;;;;;6.03;3.22;;;;;;;10.11;79.12;99640.00;4993586;28;20030;-55
2022/01/02 07:57:05;;;;;;;5.10;3.33;;;;;;;10.11;78.80;99640.00;4994707;28;20129;-55
2022/01/02 07:59:36;;;;;;;6.18;3.55;;;;;;;10.13;79.08;99646.91;4993498;28;20070;-56
2022/01/02 08:02:01;;;;;;;4.88;3.40;;;;;;;10.13;79.15;99646.06;4977200;28;20065;-56
2022/01/02 08:04:32;;;;;;;4.00;3.10;;;;;;;10.14;79.12;99647.81;4994495;28;20042;-56
2022/01/02 08:07:05;;;;;;;4.35;3.25;;;;;;;10.14;79.12;99640.03;4977692;28;20034;-55
2022/01/02 08:09:36;;;;;;;5.35;3.28;;;;;;;10.16;79.21;99661.63;4994721;28;20121;-55
2022/01/02 08:12:04;;;;;;;4.88;3.30;;;;;;;10.17;78.82;99671.16;4976805;28;20034;-56
2022/01/02 08:14:35;;;;;;;5.80;3.10;;;;;;;10.17;78.78;99673.75;4976926;28;20045;-56
2022/01/02 08:17:00;;;;;;;4.53;3.63;;;;;;;10.17;78.94;99691.88;4976751;28;20049;-56
2022/01/02 08:19:26;;;;;;;5.03;3.05;;;;;;;10.17;79.06;99678.91;4993097;28;20039;-55
2022/01/02 08:21:51;;;;;;;6.85;3.72;;;;;;;10.17;79.30;99677.19;4994384;28;20042;-55
2022/01/02 08:24:17;;;;;;;6.00;3.65;;;;;;;10.17;79.01;99678.91;4993141;28;20046;-55
2022/01/02 08:26:42;;;;;;;5.35;3.80;;;;;;;10.19;78.84;99667.72;4993627;28;20108;-55
2022/01/02 08:29:07;;;;;;;5.72;3.40;;;;;;;10.21;79.02;99672.91;4994324;28;20042;-55
2022/01/02 08:31:33;;;;;;;3.72;2.38;;;;;;;10.21;79.10;99662.53;4993858;28;20040;-55
2022/01/02 08:33:58;;;;;;;5.50;3.20;;;;;;;10.20;78.90;99666.88;4993063;28;20034;-56
2022/01/02 08:36:29;;;;;;;5.80;3.15;;;;;;;10.21;78.87;99650.47;4993906;28;20030;-56
2022/01/02 08:38:55;;;;;;;8.00;2.90;;;;;;;10.21;78.81;99668.59;4976663;28;20043;-56
2022/01/02 08:41:21;;;;;;;6.75;3.95;;;;;;;10.23;78.88;99697.09;4992624;28;20402;-56
2022/01/02 08:43:46;;;;;;;5.60;3.75;;;;;;;10.25;78.98;99708.34;4994098;28;20046;-56
2022/01/02 08:46:12;;;;;;;3.70;3.13;;;;;;;10.26;78.97;99696.28;4993043;28;20078;-56
2022/01/02 08:48:40;;;;;;;5.80;3.58;;;;;;;10.26;78.68;99699.72;5000034;28;20535;-56
2022/01/02 08:51:10;;;;;;;5.78;3.63;;;;;;;10.27;79.36;99690.25;5000477;28;20026;-55
2022/01/02 08:53:39;;;;;;;9.38;3.33;;;;;;;10.27;79.16;99709.25;5000262;28;20042;-56
2022/01/02 08:56:05;;;;;;;6.05;3.53;;;;;;;10.28;78.91;99705.81;5000133;28;20100;-55
2022/01/02 08:58:30;;;;;;;9.80;3.72;;;;;;;10.28;79.06;99705.81;5000470;28;20493;-56
2022/01/02 09:01:02;;;;;;;4.38;3.47;;;;;;;10.28;78.86;99700.63;4999334;28;20038;-56
2022/01/02 09:03:36;;;;;;;8.02;4.15;;;;;;;10.28;79.22;99718.75;5000704;28;20042;-55
2022/01/02 09:06:05;;;;;;;8.38;4.05;;;;;;;10.28;79.18;99710.09;4999309;28;20030;-55
2022/01/02 09:08:30;;;;;;;8.13;4.15;;;;;;;10.28;79.30;99721.34;4998686;28;20034;-56
2022/01/02 09:11:04;;;;;;;5.20;3.90;;;;;;;10.28;79.10;99728.22;4999117;28;20064;-56
2022/01/02 09:13:29;;;;;;;5.68;4.10;;;;;;;10.28;79.26;99731.72;5000629;28;20085;-56
2022/01/02 09:15:57;;;;;;;7.32;3.60;;;;;;;10.29;79.03;99717.91;5000241;28;20042;-56
2022/01/02 09:18:22;;;;;;;5.82;3.72;;;;;;;10.29;79.15;99725.69;4998930;28;20042;-56
2022/01/02 09:20:48;;;;;;;5.38;3.50;;;;;;;10.29;79.01;99723.09;4998774;28;20129;-56
2022/01/02 09:23:17;;;;;;;6.35;4.10;;;;;;;10.30;79.16;99737.78;5000201;28;20034;-56
2022/01/02 09:25:48;;;;;;;9.52;4.57;;;;;;;10.28;79.25;99736.88;4999649;28;20414;-56
2022/01/02 09:28:19;;;;;;;9.07;4.35;;;;;;;10.28;79.05;99738.59;4983047;28;20093;-55
2022/01/02 09:30:48;;;;;;;7.07;4.22;;;;;;;10.27;79.06;99742.91;5000177;28;20034;-56
2022/01/02 09:33:17;;;;;;;11.13;3.92;;;;;;;10.28;79.30;99754.13;5000311;28;20038;-56
2022/01/02 09:35:45;;;;;;;6.80;4.07;;;;;;;10.27;79.19;99765.38;5000572;28;20378;-55
2022/01/02 09:38:11;;;;;;;6.78;3.85;;;;;;;10.29;78.93;99764.53;4983066;28;20057;-56
2022/01/02 09:40:45;;;;;;;8.95;4.75;;;;;;;10.28;78.91;99767.97;5000616;28;20035;-56
2022/01/02 09:43:11;;;;;;;7.22;4.00;;;;;;;10.27;79.14;99755.00;4998618;28;20038;-55
2022/01/02 09:45:38;;;;;;;6.18;4.35;;;;;;;10.26;79.37;99756.72;5000091;28;20041;-56
2022/01/02 09:48:10;;;;;;;5.10;4.47;;;;;;;10.29;79.36;99759.34;4998476;28;20034;-55
2022/01/02 09:50:37;;;;;;;6.75;3.88;;;;;;;10.29;79.36;99753.28;4999142;28;20034;-55
2022/01/02 09:53:03;;;;;;;5.60;3.50;;;;;;;10.28;79.41;99748.94;4999996;28;20038;-56
2022/01/02 09:55:31;;;;;;;8.10;4.20;;;;;;;10.28;79.04;99748.94;4999545;28;20506;-55
2022/01/02 09:58:03;;;;;;;5.72;4.05;;;;;;;10.27;79.19;99740.31;4982485;28;20034;-56
2022/01/02 10:00:29;;;;;;;4.75;3.92;;;;;;;10.28;79.52;99747.25;4996138;28;20106;-56
2022/01/02 10:03:00;;;;;;;9.98;4.25;;;;;;;10.27;78.83;99753.28;4995538;28;20097;-55
2022/01/02 10:05:29;;;;;;;9.80;4.82;;;;;;;10.28;79.04;99756.72;4995858;28;20078;-56
2022/01/02 10:08:18;;;;;;;6.43;4.32;;;;;;;10.29;79.07;99759.34;4979350;28;20030;-55
2022/01/02 10:10:47;;;;;;;6.75;4.90;;;;;;;10.30;79.51;99753.31;4979677;28;20042;-55
2022/01/02 10:13:15;;;;;;;9.95;5.05;;;;;;;10.29;79.25;99746.41;4996633;28;20396;-56
2022/01/02 10:15:42;;;;;;;7.95;5.43;;;;;;;10.30;79.72;99745.56;4995057;28;20044;-55
2022/01/02 10:18:10;;;;;;;6.78;4.20;;;;;;;10.31;79.06;99736.03;4996524;28;20034;-55
2022/01/02 10:20:42;;;;;;;6.10;3.58;;;;;;;10.32;79.28;99736.09;4995401;28;20117;-56
2022/01/02 10:23:20;;;;;;;7.03;4.50;;;;;;;10.33;79.23;99731.75;4979257;28;20034;-55
2022/01/02 10:25:57;;;;;;;6.55;4.05;;;;;;;10.35;79.17;99743.00;4978431;28;20133;-57
2022/01/02 10:28:31;;;;;;;9.70;4.50;;;;;;;10.34;79.13;99736.97;4995459;28;20040;-56
2022/01/02 10:30:58;;;;;;;10.57;5.68;;;;;;;10.35;79.22;99745.59;4995352;28;20130;-55
2022/01/02 10:33:25;;;;;;;6.63;4.35;;;;;;;10.36;79.25;99753.38;4996265;28;20050;-56
2022/01/02 10:36:01;;;;;;;8.75;4.63;;;;;;;10.36;79.58;99749.94;4995129;28;20052;-55
2022/01/02 10:38:28;;;;;;;8.07;4.20;;;;;;;10.38;79.61;99763.81;4996657;28;20049;-56
2022/01/02 10:40:54;;;;;;;10.65;4.43;;;;;;;10.38;79.42;99762.88;4978941;28;20042;-55
2022/01/02 10:43:29;;;;;;;5.90;4.40;;;;;;;10.39;79.50;99757.78;4995143;28;20034;-56
2022/01/02 10:46:03;;;;;;;6.60;4.03;;;;;;;10.40;79.33;99759.53;4994721;28;20088;-56
2022/01/02 10:48:33;;;;;;;7.00;5.43;;;;;;;10.38;79.66;99748.25;4978807;28;20071;-55
2022/01/02 10:51:04;;;;;;;9.80;4.80;;;;;;;10.41;79.64;99750.00;4978556;28;20076;-56
2022/01/02 10:53:33;;;;;;;8.00;3.97;;;;;;;10.42;79.28;99747.47;4995335;28;20057;-56
2022/01/02 10:56:00;;;;;;;7.88;4.15;;;;;;;10.41;79.38;99753.50;4978435;28;20034;-55
2022/01/02 10:58:26;;;;;;;7.80;4.63;;;;;;;10.42;79.18;99756.94;4994715;28;20038;-55
2022/01/02 11:00:52;;;;;;;8.85;4.05;;;;;;;10.41;79.27;99758.69;4978377;28;20030;-55
2022/01/02 11:03:23;;;;;;;8.88;4.53;;;;;;;10.42;79.18;99756.94;4994093;28;20050;-56
2022/01/02 11:05:56;;;;;;;10.70;5.18;;;;;;;10.41;79.19;99756.09;4993996;28;20454;-56
2022/01/02 11:08:27;;;;;;;9.52;4.60;;;;;;;10.41;79.60;99762.97;4978085;28;20037;-56
2022/01/02 11:10:55;;;;;;;7.07;4.40;;;;;;;10.41;79.57;99757.78;4977205;28;20034;-55
2022/01/02 11:13:20;;;;;;;11.13;4.65;;;;;;;10.42;79.26;99762.13;4995503;28;20089;-55
2022/01/02 11:15:46;;;;;;;6.28;4.25;;;;;;;10.40;79.49;99759.53;4995464;28;20034;-56
2022/01/02 11:18:13;;;;;;;4.57;3.28;;;;;;;10.40;79.69;99762.13;4995455;28;20072;-55
2022/01/02 11:20:40;;;;;;;10.10;4.95;;;;;;;10.42;79.60;99764.72;4978508;28;20117;-55
2022/01/02 11:23:09;;;;;;;5.95;4.32;;;;;;;10.40;79.50;99771.59;4994305;28;20038;-55
2022/01/02 11:25:53;;;;;;;14.00;5.03;;;;;;;10.39;79.31;99770.72;4995124;28;20036;-55
2022/01/02 11:28:35;;;;;;;9.10;4.65;;;;;;;10.37;79.26;99754.25;4994233;28;20075;-56
2022/01/02 11:31:00;;;;;;;6.82;4.68;;;;;;;10.39;79.53;99752.59;4995537;28;20035;-55
2022/01/02 11:33:39;;;;;;;10.30;4.15;;;;;;;10.39;79.36;99749.13;4994030;28;20549;-56
2022/01/02 11:36:29;;;;;;;6.18;3.78;;;;;;;10.41;79.71;99748.31;4977942;28;20031;-55
2022/01/02 11:39:05;;;;;;;7.38;3.97;;;;;;;10.40;79.87;99740.50;4977469;28;20049;-56
2022/01/02 11:41:42;;;;;;;9.25;4.38;;;;;;;10.40;79.92;99732.72;4977608;28;20050;-56